sensor_id;sensor_type;location;lat;lon;timestamp;pressure;altitude;pressure_sealevel;temperature;humidity
4199;BME280;2113;50.946;14.610;2023-03-25T00:01:23;96139.66;;;6.14;84.42
4199;BME280;2113;50.946;14.610;2023-03-25T00:03:55;96134.88;;;6.19;84.66
4199;BME280;2113;50.946;14.610;2023-03-25T00:06:24;96135.97;;;6.45;84.06
4199;BME280;2113;50.946;14.610;2023-03-25T00:08:52;96132.31;;;6.48;84.09
4199;BME280;2113;50.946;14.610;2023-03-25T00:11:22;96130.94;;;6.53;84.02
4199;BME280;2113;50.946;14.610;2023-03-25T00:13:50;96142.53;;;6.49;84.43
4199;BME280;2113;50.946;14.610;2023-03-25T00:16:19;96149.50;;;6.49;84.79
4199;BME280;2113;50.946;14.610;2023-03-25T00:18:49;96142.97;;;6.54;84.50
4199;BME280;2113;50.946;14.610;2023-03-25T00:21:18;96128.63;;;6.50;84.97
4199;BME280;2113;50.946;14.610;2023-03-25T00:23:47;96124.38;;;6.49;85.28
4199;BME280;2113;50.946;14.610;2023-03-25T00:26:15;96125.91;;;6.52;85.83
4199;BME280;2113;50.946;14.610;2023-03-25T00:28:43;96129.31;;;6.52;85.58
4199;BME280;2113;50.946;14.610;2023-03-25T00:31:13;96125.34;;;6.48;86.00
4199;BME280;2113;50.946;14.610;2023-03-25T00:33:42;96118.25;;;6.40;86.56
4199;BME280;2113;50.946;14.610;2023-03-25T00:36:12;96118.94;;;6.23;87.42
4199;BME280;2113;50.946;14.610;2023-03-25T00:38:41;96120.16;;;6.19;87.62
4199;BME280;2113;50.946;14.610;2023-03-25T00:41:14;96109.66;;;6.11;88.01
4199;BME280;2113;50.946;14.610;2023-03-25T00:43:51;96110.16;;;5.95;88.75
4199;BME280;2113;50.946;14.610;2023-03-25T00:46:20;96108.31;;;5.77;89.17
4199;BME280;2113;50.946;14.610;2023-03-25T00:48:49;96104.47;;;5.61;89.28
4199;BME280;2113;50.946;14.610;2023-03-25T00:51:20;96105.81;;;5.46;90.37
4199;BME280;2113;50.946;14.610;2023-03-25T00:53:50;96105.66;;;5.48;90.85
4199;BME280;2113;50.946;14.610;2023-03-25T00:56:20;96107.00;;;5.42;90.66
4199;BME280;2113;50.946;14.610;2023-03-25T00:58:49;96104.53;;;5.31;90.90
4199;BME280;2113;50.946;14.610;2023-03-25T01:01:20;96103.25;;;5.25;91.37
4199;BME280;2113;50.946;14.610;2023-03-25T01:03:54;96102.53;;;5.14;91.50
4199;BME280;2113;50.946;14.610;2023-03-25T01:06:28;96101.00;;;5.11;92.13
4199;BME280;2113;50.946;14.610;2023-03-25T01:09:00;96103.84;;;5.39;91.42
4199;BME280;2113;50.946;14.610;2023-03-25T01:11:31;96091.06;;;5.47;90.95
4199;BME280;2113;50.946;14.610;2023-03-25T01:14:02;96089.50;;;5.75;90.30
4199;BME280;2113;50.946;14.610;2023-03-25T01:16:31;96089.84;;;5.91;89.73
4199;BME280;2113;50.946;14.610;2023-03-25T01:19:00;96089.19;;;5.98;89.45
4199;BME280;2113;50.946;14.610;2023-03-25T01:21:30;96085.22;;;5.94;89.36
4199;BME280;2113;50.946;14.610;2023-03-25T01:24:01;96090.13;;;5.97;89.43
4199;BME280;2113;50.946;14.610;2023-03-25T01:26:30;96082.63;;;5.94;88.96
4199;BME280;2113;50.946;14.610;2023-03-25T01:28:58;96090.47;;;5.74;89.75
4199;BME280;2113;50.946;14.610;2023-03-25T01:31:26;96089.53;;;5.84;89.81
4199;BME280;2113;50.946;14.610;2023-03-25T01:33:56;96091.81;;;5.78;90.01
4199;BME280;2113;50.946;14.610;2023-03-25T01:36:25;96090.19;;;5.67;90.59
4199;BME280;2113;50.946;14.610;2023-03-25T01:38:58;96088.66;;;5.55;91.19
4199;BME280;2113;50.946;14.610;2023-03-25T01:41:28;96085.09;;;5.46;90.84
4199;BME280;2113;50.946;14.610;2023-03-25T01:47:19;96075.44;;;5.58;91.71
4199;BME280;2113;50.946;14.610;2023-03-25T01:49:48;96074.50;;;5.59;90.95
4199;BME280;2113;50.946;14.610;2023-03-25T01:52:20;96081.69;;;5.46;91.31
4199;BME280;2113;50.946;14.610;2023-03-25T01:54:53;96065.97;;;5.38;91.96
4199;BME280;2113;50.946;14.610;2023-03-25T01:57:24;96073.84;;;5.26;91.97
4199;BME280;2113;50.946;14.610;2023-03-25T01:59:53;96075.59;;;5.16;92.22
4199;BME280;2113;50.946;14.610;2023-03-25T02:02:22;96069.81;;;5.03;92.50
4199;BME280;2113;50.946;14.610;2023-03-25T02:05:04;96068.84;;;5.04;92.95
4199;BME280;2113;50.946;14.610;2023-03-25T02:07:39;96064.75;;;5.32;91.93
4199;BME280;2113;50.946;14.610;2023-03-25T02:10:15;96062.28;;;5.30;91.40
4199;BME280;2113;50.946;14.610;2023-03-25T02:12:44;96061.34;;;5.31;91.83
4199;BME280;2113;50.946;14.610;2023-03-25T02:15:14;96058.47;;;5.34;92.08
4199;BME280;2113;50.946;14.610;2023-03-25T02:20:50;96041.25;;;5.14;92.74
4199;BME280;2113;50.946;14.610;2023-03-25T02:23:41;96042.38;;;5.31;92.93
4199;BME280;2113;50.946;14.610;2023-03-25T02:26:45;96033.69;;;5.42;92.57
4199;BME280;2113;50.946;14.610;2023-03-25T02:29:34;96020.44;;;5.35;92.85
4199;BME280;2113;50.946;14.610;2023-03-25T02:32:17;96024.84;;;5.54;93.02
4199;BME280;2113;50.946;14.610;2023-03-25T02:35:08;96018.72;;;5.55;91.75
4199;BME280;2113;50.946;14.610;2023-03-25T02:38:12;96023.34;;;5.61;92.18
4199;BME280;2113;50.946;14.610;2023-03-25T02:40:52;96015.59;;;5.61;91.98
4199;BME280;2113;50.946;14.610;2023-03-25T02:43:29;96015.19;;;5.65;92.09
4199;BME280;2113;50.946;14.610;2023-03-25T02:46:02;96019.97;;;5.70;91.44
4199;BME280;2113;50.946;14.610;2023-03-25T02:48:38;96011.69;;;5.95;91.21
4199;BME280;2113;50.946;14.610;2023-03-25T02:51:11;96010.88;;;5.95;90.86
4199;BME280;2113;50.946;14.610;2023-03-25T02:53:45;96009.91;;;6.15;91.44
4199;BME280;2113;50.946;14.610;2023-03-25T02:56:17;96022.56;;;6.37;90.55
4199;BME280;2113;50.946;14.610;2023-03-25T02:58:49;96010.03;;;6.33;90.51
4199;BME280;2113;50.946;14.610;2023-03-25T03:01:21;96013.56;;;6.41;90.13
4199;BME280;2113;50.946;14.610;2023-03-25T03:03:55;96021.75;;;6.37;89.96
4199;BME280;2113;50.946;14.610;2023-03-25T03:06:24;96012.47;;;6.34;90.31
4199;BME280;2113;50.946;14.610;2023-03-25T03:09:05;96007.69;;;6.39;90.04
4199;BME280;2113;50.946;14.610;2023-03-25T03:11:42;96008.53;;;6.40;89.99
4199;BME280;2113;50.946;14.610;2023-03-25T03:14:29;96010.00;;;6.52;89.74
4199;BME280;2113;50.946;14.610;2023-03-25T03:17:05;96011.06;;;6.59;89.32
4199;BME280;2113;50.946;14.610;2023-03-25T03:19:39;96007.38;;;6.62;89.55
4199;BME280;2113;50.946;14.610;2023-03-25T03:22:19;96010.91;;;6.61;89.93
4199;BME280;2113;50.946;14.610;2023-03-25T03:24:59;96012.25;;;6.74;89.25
4199;BME280;2113;50.946;14.610;2023-03-25T03:27:31;96012.50;;;6.81;89.11
4199;BME280;2113;50.946;14.610;2023-03-25T03:30:06;96015.63;;;6.85;88.99
4199;BME280;2113;50.946;14.610;2023-03-25T03:32:40;95999.34;;;6.92;88.64
4199;BME280;2113;50.946;14.610;2023-03-25T03:35:16;96007.41;;;6.89;88.78
4199;BME280;2113;50.946;14.610;2023-03-25T03:37:50;96010.28;;;6.96;88.53
4199;BME280;2113;50.946;14.610;2023-03-25T03:40:22;96004.13;;;6.97;88.45
4199;BME280;2113;50.946;14.610;2023-03-25T03:42:54;96002.03;;;7.00;87.82
4199;BME280;2113;50.946;14.610;2023-03-25T03:45:28;95999.44;;;7.00;87.79
4199;BME280;2113;50.946;14.610;2023-03-25T03:48:00;96004.28;;;6.86;88.46
4199;BME280;2113;50.946;14.610;2023-03-25T03:50:31;96004.28;;;6.86;88.32
4199;BME280;2113;50.946;14.610;2023-03-25T03:53:07;96022.22;;;6.79;88.55
4199;BME280;2113;50.946;14.610;2023-03-25T03:55:40;96021.13;;;6.82;88.57
4199;BME280;2113;50.946;14.610;2023-03-25T03:58:12;96019.16;;;6.84;87.88
4199;BME280;2113;50.946;14.610;2023-03-25T04:00:52;96012.06;;;6.86;88.14
4199;BME280;2113;50.946;14.610;2023-03-25T04:03:28;96015.63;;;6.85;87.92
4199;BME280;2113;50.946;14.610;2023-03-25T04:06:05;96010.44;;;6.85;87.55
4199;BME280;2113;50.946;14.610;2023-03-25T04:08:39;96012.25;;;6.74;88.14
4199;BME280;2113;50.946;14.610;2023-03-25T04:11:18;96008.19;;;6.62;88.39
4199;BME280;2113;50.946;14.610;2023-03-25T04:13:51;96015.69;;;6.65;87.79
4199;BME280;2113;50.946;14.610;2023-03-25T04:16:21;96005.34;;;6.56;88.13
4199;BME280;2113;50.946;14.610;2023-03-25T04:18:51;96007.38;;;6.62;87.77
4199;BME280;2113;50.946;14.610;2023-03-25T04:21:20;96018.88;;;6.50;87.99
4199;BME280;2113;50.946;14.610;2023-03-25T04:23:48;96025.13;;;6.57;87.90
4199;BME280;2113;50.946;14.610;2023-03-25T04:26:19;96023.50;;;6.56;87.71
4199;BME280;2113;50.946;14.610;2023-03-25T04:28:47;96028.53;;;6.57;87.89
4199;BME280;2113;50.946;14.610;2023-03-25T04:31:16;96024.03;;;6.59;87.31
4199;BME280;2113;50.946;14.610;2023-03-25T04:33:44;96019.78;;;6.58;87.63
4199;BME280;2113;50.946;14.610;2023-03-25T04:36:14;96020.75;;;6.57;87.27
4199;BME280;2113;50.946;14.610;2023-03-25T04:38:43;96021.72;;;6.56;87.20
4199;BME280;2113;50.946;14.610;2023-03-25T04:41:12;96022.00;;;6.43;87.66
4199;BME280;2113;50.946;14.610;2023-03-25T04:43:43;96025.16;;;6.47;87.53
4199;BME280;2113;50.946;14.610;2023-03-25T04:46:12;96029.78;;;6.43;87.75
4199;BME280;2113;50.946;14.610;2023-03-25T04:48:42;96034.59;;;6.38;88.00
4199;BME280;2113;50.946;14.610;2023-03-25T04:51:11;96044.38;;;6.45;87.55
4199;BME280;2113;50.946;14.610;2023-03-25T04:53:40;96039.63;;;6.50;87.56
4199;BME280;2113;50.946;14.610;2023-03-25T04:56:14;96046.16;;;6.44;87.76
4199;BME280;2113;50.946;14.610;2023-03-25T04:58:44;96044.13;;;6.48;87.56
4199;BME280;2113;50.946;14.610;2023-03-25T05:01:19;96047.66;;;6.56;87.39
4199;BME280;2113;50.946;14.610;2023-03-25T05:03:49;96045.31;;;6.63;87.19
4199;BME280;2113;50.946;14.610;2023-03-25T05:06:17;96044.63;;;6.70;87.16
4199;BME280;2113;50.946;14.610;2023-03-25T05:08:45;96046.53;;;6.78;86.58
4199;BME280;2113;50.946;14.610;2023-03-25T05:11:14;96042.53;;;6.84;86.01
4199;BME280;2113;50.946;14.610;2023-03-25T05:13:42;96044.03;;;6.86;85.97
4199;BME280;2113;50.946;14.610;2023-03-25T05:16:13;96037.88;;;6.87;86.42
4199;BME280;2113;50.946;14.610;2023-03-25T05:18:42;96037.06;;;6.87;86.99
4199;BME280;2113;50.946;14.610;2023-03-25T05:21:10;96042.97;;;6.79;86.71
4199;BME280;2113;50.946;14.610;2023-03-25T05:23:39;96036.41;;;6.75;87.24
4199;BME280;2113;50.946;14.610;2023-03-25T05:26:08;96037.81;;;6.69;87.33
4199;BME280;2113;50.946;14.610;2023-03-25T05:28:38;96035.63;;;6.65;86.93
4199;BME280;2113;50.946;14.610;2023-03-25T05:31:07;96042.06;;;6.61;86.64
4199;BME280;2113;50.946;14.610;2023-03-25T05:33:38;96041.53;;;6.48;87.58
4199;BME280;2113;50.946;14.610;2023-03-25T05:36:09;96036.22;;;6.39;87.83
4199;BME280;2113;50.946;14.610;2023-03-25T05:38:38;96046.47;;;6.41;87.59
4199;BME280;2113;50.946;14.610;2023-03-25T05:41:08;96045.22;;;6.45;86.83
4199;BME280;2113;50.946;14.610;2023-03-25T05:43:42;96048.66;;;6.36;87.62
4199;BME280;2113;50.946;14.610;2023-03-25T05:46:14;96044.00;;;6.39;87.00
4199;BME280;2113;50.946;14.610;2023-03-25T05:48:44;96054.66;;;6.36;87.11
4199;BME280;2113;50.946;14.610;2023-03-25T05:51:14;96052.59;;;6.40;86.91
4199;BME280;2113;50.946;14.610;2023-03-25T05:53:45;96047.81;;;6.45;86.17
4199;BME280;2113;50.946;14.610;2023-03-25T05:56:16;96060.09;;;6.53;85.92
4199;BME280;2113;50.946;14.610;2023-03-25T05:58:45;96063.78;;;6.50;85.99
4199;BME280;2113;50.946;14.610;2023-03-25T06:01:15;96057.63;;;6.51;86.08
4199;BME280;2113;50.946;14.610;2023-03-25T06:04:00;96068.69;;;6.63;84.96
4199;BME280;2113;50.946;14.610;2023-03-25T06:06:31;96067.59;;;6.65;85.05
4199;BME280;2113;50.946;14.610;2023-03-25T06:09:00;96064.56;;;6.70;83.87
4199;BME280;2113;50.946;14.610;2023-03-25T06:11:30;96062.91;;;6.78;84.14
4199;BME280;2113;50.946;14.610;2023-03-25T06:14:05;96057.69;;;6.88;83.32
4199;BME280;2113;50.946;14.610;2023-03-25T06:16:34;96060.56;;;6.95;82.97
4199;BME280;2113;50.946;14.610;2023-03-25T06:19:04;96063.19;;;7.12;81.28
4199;BME280;2113;50.946;14.610;2023-03-25T06:21:36;96045.34;;;7.37;80.32
4199;BME280;2113;50.946;14.610;2023-03-25T06:24:04;96049.66;;;7.46;81.12
4199;BME280;2113;50.946;14.610;2023-03-25T06:26:33;96060.00;;;7.56;80.91
4199;BME280;2113;50.946;14.610;2023-03-25T06:29:01;96058.00;;;7.67;80.03
4199;BME280;2113;50.946;14.610;2023-03-25T06:31:30;96047.03;;;7.73;80.55
4199;BME280;2113;50.946;14.610;2023-03-25T06:34:00;96056.06;;;7.79;80.22
4199;BME280;2113;50.946;14.610;2023-03-25T06:36:30;96060.56;;;7.95;80.00
4199;BME280;2113;50.946;14.610;2023-03-25T06:39:00;96053.31;;;7.98;78.43
4199;BME280;2113;50.946;14.610;2023-03-25T06:41:31;96052.03;;;8.02;79.06
4199;BME280;2113;50.946;14.610;2023-03-25T06:44:17;96053.13;;;7.82;78.69
4199;BME280;2113;50.946;14.610;2023-03-25T06:47:29;96055.72;;;7.82;79.21
4199;BME280;2113;50.946;14.610;2023-03-25T06:49:58;96054.19;;;7.89;78.92
4199;BME280;2113;50.946;14.610;2023-03-25T06:52:28;96053.50;;;8.23;77.72
4199;BME280;2113;50.946;14.610;2023-03-25T06:54:56;96050.84;;;8.14;77.89
4199;BME280;2113;50.946;14.610;2023-03-25T06:57:24;96050.19;;;8.12;78.61
4199;BME280;2113;50.946;14.610;2023-03-25T06:59:52;96044.91;;;8.04;78.49
4199;BME280;2113;50.946;14.610;2023-03-25T07:02:20;96048.38;;;7.95;77.79
4199;BME280;2113;50.946;14.610;2023-03-25T07:04:49;96053.06;;;8.09;79.40
4199;BME280;2113;50.946;14.610;2023-03-25T07:07:17;96046.25;;;8.26;78.93
4199;BME280;2113;50.946;14.610;2023-03-25T07:09:51;96055.81;;;8.61;77.69
4199;BME280;2113;50.946;14.610;2023-03-25T07:12:21;96061.56;;;8.47;74.63
4199;BME280;2113;50.946;14.610;2023-03-25T07:14:50;96045.41;;;8.87;72.52
4199;BME280;2113;50.946;14.610;2023-03-25T07:17:20;96046.63;;;9.77;69.99
4199;BME280;2113;50.946;14.610;2023-03-25T07:19:49;96043.56;;;10.95;64.50
4199;BME280;2113;50.946;14.610;2023-03-25T07:22:18;96044.97;;;9.68;69.29
4199;BME280;2113;50.946;14.610;2023-03-25T07:24:46;96047.97;;;8.79;73.10
4199;BME280;2113;50.946;14.610;2023-03-25T07:27:16;96044.19;;;8.73;73.30
4199;BME280;2113;50.946;14.610;2023-03-25T07:29:56;96050.88;;;9.02;71.49
4199;BME280;2113;50.946;14.610;2023-03-25T07:32:26;96045.00;;;9.34;70.05
4199;BME280;2113;50.946;14.610;2023-03-25T07:35:00;96042.19;;;10.36;66.67
4199;BME280;2113;50.946;14.610;2023-03-25T07:37:29;96040.84;;;10.40;65.57
4199;BME280;2113;50.946;14.610;2023-03-25T07:39:58;96038.22;;;10.88;65.40
4199;BME280;2113;50.946;14.610;2023-03-25T07:42:28;96040.66;;;10.09;67.36
4199;BME280;2113;50.946;14.610;2023-03-25T07:45:15;96046.50;;;9.44;70.13
4199;BME280;2113;50.946;14.610;2023-03-25T07:47:45;96053.13;;;8.97;71.58
4199;BME280;2113;50.946;14.610;2023-03-25T07:50:16;96050.50;;;9.22;71.56
4199;BME280;2113;50.946;14.610;2023-03-25T07:52:45;96057.75;;;9.95;67.90
4199;BME280;2113;50.946;14.610;2023-03-25T07:55:14;96058.75;;;11.55;60.86
4199;BME280;2113;50.946;14.610;2023-03-25T07:58:09;96055.88;;;10.46;65.08
4199;BME280;2113;50.946;14.610;2023-03-25T08:00:37;96055.00;;;11.02;64.69
4199;BME280;2113;50.946;14.610;2023-03-25T08:03:05;96058.84;;;11.78;62.33
4199;BME280;2113;50.946;14.610;2023-03-25T08:05:34;96064.97;;;10.25;61.36
4199;BME280;2113;50.946;14.610;2023-03-25T08:08:04;96069.66;;;9.97;63.98
4199;BME280;2113;50.946;14.610;2023-03-25T08:10:33;96073.41;;;9.95;61.65
4199;BME280;2113;50.946;14.610;2023-03-25T08:13:02;96067.16;;;9.80;61.67
4199;BME280;2113;50.946;14.610;2023-03-25T08:15:31;96068.28;;;10.76;60.94
4199;BME280;2113;50.946;14.610;2023-03-25T08:17:59;96061.81;;;11.27;58.37
4199;BME280;2113;50.946;14.610;2023-03-25T08:20:29;96054.22;;;13.97;50.28
4199;BME280;2113;50.946;14.610;2023-03-25T08:22:57;96055.38;;;13.58;48.35
4199;BME280;2113;50.946;14.610;2023-03-25T08:25:26;96059.16;;;13.70;51.64
4199;BME280;2113;50.946;14.610;2023-03-25T08:27:55;96071.75;;;13.31;50.56
4199;BME280;2113;50.946;14.610;2023-03-25T08:30:23;96079.72;;;10.51;55.97
4199;BME280;2113;50.946;14.610;2023-03-25T08:32:52;96086.06;;;9.40;59.70
4199;BME280;2113;50.946;14.610;2023-03-25T08:35:22;96083.13;;;9.35;62.18
4199;BME280;2113;50.946;14.610;2023-03-25T08:37:51;96083.78;;;9.37;60.87
4199;BME280;2113;50.946;14.610;2023-03-25T08:40:19;96077.06;;;9.26;61.44
4199;BME280;2113;50.946;14.610;2023-03-25T08:42:48;96084.63;;;9.11;62.60
4199;BME280;2113;50.946;14.610;2023-03-25T08:45:16;96085.28;;;9.13;62.16
4199;BME280;2113;50.946;14.610;2023-03-25T08:47:44;96096.19;;;9.17;60.72
4199;BME280;2113;50.946;14.610;2023-03-25T08:50:15;96087.25;;;9.19;60.85
4199;BME280;2113;50.946;14.610;2023-03-25T08:52:43;96091.16;;;9.15;61.32
4199;BME280;2113;50.946;14.610;2023-03-25T08:55:11;96096.34;;;9.41;61.45
4199;BME280;2113;50.946;14.610;2023-03-25T08:57:43;96096.00;;;9.36;60.88
4199;BME280;2113;50.946;14.610;2023-03-25T09:00:14;96090.78;;;9.36;62.35
4199;BME280;2113;50.946;14.610;2023-03-25T09:02:42;96092.53;;;9.27;61.34
4199;BME280;2113;50.946;14.610;2023-03-25T09:05:12;96089.84;;;9.11;62.52
4199;BME280;2113;50.946;14.610;2023-03-25T09:07:43;96083.16;;;9.17;64.23
4199;BME280;2113;50.946;14.610;2023-03-25T09:10:12;96090.44;;;9.05;64.92
4199;BME280;2113;50.946;14.610;2023-03-25T09:12:40;96095.38;;;8.90;64.09
4199;BME280;2113;50.946;14.610;2023-03-25T09:15:09;96086.44;;;8.67;64.01
4199;BME280;2113;50.946;14.610;2023-03-25T09:17:39;96094.19;;;8.59;65.79
4199;BME280;2113;50.946;14.610;2023-03-25T09:20:09;96082.84;;;8.42;68.50
4199;BME280;2113;50.946;14.610;2023-03-25T09:22:39;96095.94;;;8.33;69.54
4199;BME280;2113;50.946;14.610;2023-03-25T09:25:09;96091.28;;;8.62;68.84
4199;BME280;2113;50.946;14.610;2023-03-25T09:27:38;96092.31;;;8.69;70.24
4199;BME280;2113;50.946;14.610;2023-03-25T09:30:08;96090.84;;;8.49;72.39
4199;BME280;2113;50.946;14.610;2023-03-25T09:32:36;96103.84;;;8.13;75.59
4199;BME280;2113;50.946;14.610;2023-03-25T09:35:05;96117.59;;;8.06;76.74
4199;BME280;2113;50.946;14.610;2023-03-25T09:37:34;96114.22;;;7.41;80.74
4199;BME280;2113;50.946;14.610;2023-03-25T09:40:04;96133.16;;;7.14;83.21
4199;BME280;2113;50.946;14.610;2023-03-25T09:42:43;96151.13;;;6.78;83.84
4199;BME280;2113;50.946;14.610;2023-03-25T09:45:24;96152.50;;;6.44;86.24
4199;BME280;2113;50.946;14.610;2023-03-25T09:47:59;96163.81;;;6.24;88.42
4199;BME280;2113;50.946;14.610;2023-03-25T09:50:30;96157.00;;;5.73;88.07
4199;BME280;2113;50.946;14.610;2023-03-25T09:53:04;96154.09;;;5.66;88.67
4199;BME280;2113;50.946;14.610;2023-03-25T09:55:39;96153.63;;;5.82;89.14
4199;BME280;2113;50.946;14.610;2023-03-25T09:58:28;96143.91;;;6.24;88.89
4199;BME280;2113;50.946;14.610;2023-03-25T10:01:06;96134.75;;;6.68;87.76
4199;BME280;2113;50.946;14.610;2023-03-25T10:03:49;96137.88;;;6.82;86.34
4199;BME280;2113;50.946;14.610;2023-03-25T10:06:21;96146.59;;;7.09;87.15
4199;BME280;2113;50.946;14.610;2023-03-25T10:09:11;96137.50;;;7.33;87.40
4199;BME280;2113;50.946;14.610;2023-03-25T10:11:49;96136.53;;;7.34;85.57
4199;BME280;2113;50.946;14.610;2023-03-25T10:14:26;96145.72;;;7.56;87.43
4199;BME280;2113;50.946;14.610;2023-03-25T10:17:04;96143.25;;;7.91;85.67
4199;BME280;2113;50.946;14.610;2023-03-25T10:19:49;96137.91;;;7.65;85.13
4199;BME280;2113;50.946;14.610;2023-03-25T10:22:26;96144.63;;;7.58;85.57
4199;BME280;2113;50.946;14.610;2023-03-25T10:24:58;96143.53;;;7.61;87.31
4199;BME280;2113;50.946;14.610;2023-03-25T10:27:32;96153.81;;;7.53;86.89
4199;BME280;2113;50.946;14.610;2023-03-25T10:30:09;96159.63;;;7.74;85.56
4199;BME280;2113;50.946;14.610;2023-03-25T10:32:43;96153.53;;;7.56;84.71
4199;BME280;2113;50.946;14.610;2023-03-25T10:35:16;96151.66;;;7.48;86.50
4199;BME280;2113;50.946;14.610;2023-03-25T10:37:47;96158.34;;;7.51;84.22
4199;BME280;2113;50.946;14.610;2023-03-25T10:40:22;96159.53;;;7.19;83.49
4199;BME280;2113;50.946;14.610;2023-03-25T10:43:10;96148.69;;;7.33;82.78
4199;BME280;2113;50.946;14.610;2023-03-25T10:45:43;96144.00;;;7.46;84.26
4199;BME280;2113;50.946;14.610;2023-03-25T10:48:15;96136.03;;;7.85;84.53
4199;BME280;2113;50.946;14.610;2023-03-25T10:50:47;96130.53;;;9.12;79.90
4199;BME280;2113;50.946;14.610;2023-03-25T10:53:20;96119.84;;;10.50;78.44
4199;BME280;2113;50.946;14.610;2023-03-25T10:55:54;96119.66;;;10.43;73.99
4199;BME280;2113;50.946;14.610;2023-03-25T10:58:28;96115.44;;;9.50;78.04
4199;BME280;2113;50.946;14.610;2023-03-25T11:00:58;96122.97;;;9.01;77.39
4199;BME280;2113;50.946;14.610;2023-03-25T11:03:30;96118.59;;;7.95;81.00
4199;BME280;2113;50.946;14.610;2023-03-25T11:06:00;96123.09;;;7.75;82.83
4199;BME280;2113;50.946;14.610;2023-03-25T11:08:29;96105.34;;;8.34;79.71
4199;BME280;2113;50.946;14.610;2023-03-25T11:10:58;96104.78;;;8.83;78.54
4199;BME280;2113;50.946;14.610;2023-03-25T11:13:30;96102.88;;;8.68;78.48
4199;BME280;2113;50.946;14.610;2023-03-25T11:16:01;96095.44;;;9.58;77.63
4199;BME280;2113;50.946;14.610;2023-03-25T11:18:50;96089.22;;;10.02;72.56
4199;BME280;2113;50.946;14.610;2023-03-25T11:21:21;96074.25;;;9.53;77.23
4199;BME280;2113;50.946;14.610;2023-03-25T11:23:50;96074.50;;;9.08;78.60
4199;BME280;2113;50.946;14.610;2023-03-25T11:26:21;96067.72;;;8.89;78.93
4199;BME280;2113;50.946;14.610;2023-03-25T11:28:53;96063.72;;;8.77;78.13
4199;BME280;2113;50.946;14.610;2023-03-25T11:31:25;96073.06;;;8.62;78.24
4199;BME280;2113;50.946;14.610;2023-03-25T11:34:03;96070.50;;;8.88;78.51
4199;BME280;2113;50.946;14.610;2023-03-25T11:36:34;96083.31;;;8.64;78.92
4199;BME280;2113;50.946;14.610;2023-03-25T11:39:13;96067.88;;;8.27;80.63
4199;BME280;2113;50.946;14.610;2023-03-25T11:41:44;96056.28;;;9.42;76.93
4199;BME280;2113;50.946;14.610;2023-03-25T11:44:21;96047.72;;;10.57;75.98
4199;BME280;2113;50.946;14.610;2023-03-25T11:46:55;96041.06;;;11.26;73.08
4199;BME280;2113;50.946;14.610;2023-03-25T11:49:25;96037.69;;;11.48;70.19
4199;BME280;2113;50.946;14.610;2023-03-25T11:51:56;96036.78;;;10.53;70.92
4199;BME280;2113;50.946;14.610;2023-03-25T11:54:27;96029.28;;;10.42;73.36
4199;BME280;2113;50.946;14.610;2023-03-25T11:56:57;96026.06;;;11.20;71.10
4199;BME280;2113;50.946;14.610;2023-03-25T11:59:27;96022.69;;;11.42;68.62
4199;BME280;2113;50.946;14.610;2023-03-25T12:02:16;96033.78;;;10.97;69.42
4199;BME280;2113;50.946;14.610;2023-03-25T12:04:55;96031.56;;;10.45;69.75
4199;BME280;2113;50.946;14.610;2023-03-25T12:07:24;96025.44;;;11.01;68.73
4199;BME280;2113;50.946;14.610;2023-03-25T12:09:54;96010.34;;;11.28;66.25
4199;BME280;2113;50.946;14.610;2023-03-25T12:12:34;96004.63;;;11.24;64.52
4199;BME280;2113;50.946;14.610;2023-03-25T12:15:12;96001.84;;;10.54;63.61
4199;BME280;2113;50.946;14.610;2023-03-25T12:17:52;96008.06;;;10.61;65.19
4199;BME280;2113;50.946;14.610;2023-03-25T12:20:28;96015.16;;;9.78;67.82
4199;BME280;2113;50.946;14.610;2023-03-25T12:23:03;96021.00;;;9.14;71.48
4199;BME280;2113;50.946;14.610;2023-03-25T12:25:46;96034.50;;;8.22;76.95
4199;BME280;2113;50.946;14.610;2023-03-25T12:28:48;96021.72;;;7.93;78.33
4199;BME280;2113;50.946;14.610;2023-03-25T12:31:33;96019.28;;;7.92;78.13
4199;BME280;2113;50.946;14.610;2023-03-25T12:34:15;96014.75;;;8.73;76.50
4199;BME280;2113;50.946;14.610;2023-03-25T12:36:54;96017.13;;;8.40;76.13
4199;BME280;2113;50.946;14.610;2023-03-25T12:39:46;96020.59;;;8.49;76.58
4199;BME280;2113;50.946;14.610;2023-03-25T12:42:29;96005.09;;;9.33;77.82
4199;BME280;2113;50.946;14.610;2023-03-25T12:45:14;96014.72;;;10.07;72.19
4199;BME280;2113;50.946;14.610;2023-03-25T12:47:49;96007.06;;;10.79;75.16
4199;BME280;2113;50.946;14.610;2023-03-25T12:50:29;96006.03;;;10.96;68.36
4199;BME280;2113;50.946;14.610;2023-03-25T12:53:14;96003.16;;;10.58;69.92
4199;BME280;2113;50.946;14.610;2023-03-25T12:55:56;95989.47;;;11.20;68.11
4199;BME280;2113;50.946;14.610;2023-03-25T12:58:42;95995.75;;;10.94;68.00
4199;BME280;2113;50.946;14.610;2023-03-25T13:01:16;95985.84;;;11.29;67.65
4199;BME280;2113;50.946;14.610;2023-03-25T13:04:01;95983.16;;;11.37;64.06
4199;BME280;2113;50.946;14.610;2023-03-25T13:06:38;95978.56;;;11.47;65.01
4199;BME280;2113;50.946;14.610;2023-03-25T13:09:14;95965.25;;;11.26;64.48
4199;BME280;2113;50.946;14.610;2023-03-25T13:11:49;95960.13;;;11.40;63.16
4199;BME280;2113;50.946;14.610;2023-03-25T13:14:23;95948.81;;;11.79;61.73
4199;BME280;2113;50.946;14.610;2023-03-25T13:16:56;95947.47;;;11.83;63.10
4199;BME280;2113;50.946;14.610;2023-03-25T13:19:28;95972.00;;;11.12;58.95
4199;BME280;2113;50.946;14.610;2023-03-25T13:22:04;95971.38;;;11.10;61.44
4199;BME280;2113;50.946;14.610;2023-03-25T13:24:41;95972.06;;;11.35;59.93
4199;BME280;2113;50.946;14.610;2023-03-25T13:27:13;95976.25;;;10.42;62.56
4199;BME280;2113;50.946;14.610;2023-03-25T13:29:43;95973.66;;;10.09;62.17
4199;BME280;2113;50.946;14.610;2023-03-25T13:32:17;95983.75;;;10.61;62.27
4199;BME280;2113;50.946;14.610;2023-03-25T13:34:51;95976.91;;;10.03;62.42
4199;BME280;2113;50.946;14.610;2023-03-25T13:37:25;95975.09;;;10.04;63.17
4199;BME280;2113;50.946;14.610;2023-03-25T13:40:06;95980.63;;;10.74;61.96
4199;BME280;2113;50.946;14.610;2023-03-25T13:42:45;95983.19;;;10.82;59.04
4199;BME280;2113;50.946;14.610;2023-03-25T13:45:17;95970.88;;;10.51;58.85
4199;BME280;2113;50.946;14.610;2023-03-25T13:47:49;95967.78;;;10.07;61.63
4199;BME280;2113;50.946;14.610;2023-03-25T13:50:24;95967.78;;;10.07;59.09
4199;BME280;2113;50.946;14.610;2023-03-25T13:52:57;95962.25;;;10.26;58.23
4199;BME280;2113;50.946;14.610;2023-03-25T13:55:30;95965.19;;;10.31;58.53
4199;BME280;2113;50.946;14.610;2023-03-25T13:58:13;95963.56;;;10.39;61.28